Time;durP1;ratioP1;P1;durP2;ratioP2;P2;SDS_P1;SDS_P2;PMS_P1;PMS_P2;Temp;Humidity;BMP_temperature;BMP_pressure;BME280_temperature;BME280_humidity;BME280_pressure;Samples;Min_cycle;Max_cycle;Signal;HPM_P1;HPM_P2
2021/01/25 00:01:42;;;;;;;2.60;2.08;;;;;;;-144.78;100.00;59851.00;5013200;28;20240;-76
2021/01/25 00:04:09;;;;;;;2.03;1.27;;;;;;;-144.78;100.00;59851.00;5012598;28;20666;-74
2021/01/25 00:06:35;;;;;;;1.40;1.30;;;;;;;-144.78;100.00;59851.00;5013017;28;20195;-74
2021/01/25 00:09:01;;;;;;;5.97;1.85;;;;;;;-144.78;100.00;59851.00;5013093;28;20287;-74
2021/01/25 00:11:28;;;;;;;2.17;1.70;;;;;;;-144.78;100.00;59851.00;5014033;28;20657;-74
2021/01/25 00:13:54;;;;;;;1.30;1.20;;;;;;;-144.78;100.00;59851.00;5014419;28;20206;-75
2021/01/25 00:16:22;;;;;;;2.45;1.45;;;;;;;-144.78;100.00;59851.00;5013944;28;20215;-76
2021/01/25 00:18:49;;;;;;;1.40;1.30;;;;;;;-144.78;100.00;59851.00;5013124;28;20595;-75
2021/01/25 00:21:17;;;;;;;2.45;1.75;;;;;;;-144.78;100.00;59851.00;5030490;28;20198;-74
2021/01/25 00:23:44;;;;;;;2.03;1.70;;;;;;;-144.78;100.00;59851.00;5033399;28;20598;-75
2021/01/25 00:26:11;;;;;;;1.75;1.23;;;;;;;-144.78;100.00;59851.00;5031077;28;20198;-75
2021/01/25 00:28:37;;;;;;;4.30;2.15;;;;;;;-144.78;100.00;59851.00;5032760;28;20584;-75
2021/01/25 00:31:04;;;;;;;2.90;2.20;;;;;;;-144.78;100.00;59851.00;5017151;28;20603;-74
2021/01/25 00:33:30;;;;;;;1.90;1.75;;;;;;;-144.78;100.00;59851.00;5012888;28;20194;-75
2021/01/25 00:35:57;;;;;;;2.25;1.60;;;;;;;-144.78;100.00;59851.00;5012993;28;20206;-74
2021/01/25 00:38:24;;;;;;;2.30;1.98;;;;;;;-144.78;100.00;59851.00;5012919;28;20219;-75
2021/01/25 00:40:50;;;;;;;2.10;1.90;;;;;;;-144.78;100.00;59851.00;5016472;28;20716;-76
2021/01/25 00:43:17;;;;;;;2.08;1.88;;;;;;;-144.78;100.00;59851.00;5013009;28;20247;-75
2021/01/25 00:45:43;;;;;;;2.25;2.05;;;;;;;-144.78;100.00;59851.00;5013173;28;20208;-75
2021/01/25 00:48:09;;;;;;;2.45;2.25;;;;;;;-144.78;100.00;59851.00;5012448;28;20208;-75
2021/01/25 00:50:36;;;;;;;4.07;1.92;;;;;;;-144.78;100.00;59851.00;5021952;28;20238;-76
2021/01/25 00:53:02;;;;;;;2.95;1.67;;;;;;;-144.78;100.00;59851.00;5015607;28;20757;-75
2021/01/25 00:55:30;;;;;;;2.65;2.00;;;;;;;-144.78;100.00;59851.00;5012672;28;20198;-75
2021/01/25 00:57:57;;;;;;;2.72;1.83;;;;;;;-144.78;100.00;59851.00;5012734;28;20637;-74
2021/01/25 01:00:23;;;;;;;1.98;1.73;;;;;;;-144.78;100.00;59851.00;5012449;28;20246;-75
2021/01/25 01:02:50;;;;;;;2.05;1.88;;;;;;;-144.78;100.00;59851.00;5012559;28;20208;-76
2021/01/25 01:05:17;;;;;;;3.25;1.85;;;;;;;-144.78;100.00;59851.00;5012648;28;20633;-75
2021/01/25 01:07:43;;;;;;;3.30;2.50;;;;;;;-144.78;100.00;59851.00;5012641;28;20211;-75
2021/01/25 01:10:10;;;;;;;2.97;2.67;;;;;;;-144.78;100.00;59851.00;4999366;28;20214;-74
2021/01/25 01:12:37;;;;;;;1.63;1.52;;;;;;;-144.78;100.00;59851.00;4993263;28;20563;-74
2021/01/25 01:15:12;;;;;;;2.10;1.63;;;;;;;-144.78;100.00;59851.00;5012746;28;20199;-76
2021/01/25 01:17:39;;;;;;;3.45;1.60;;;;;;;-144.78;100.00;59851.00;5012663;28;20224;-76
2021/01/25 01:20:07;;;;;;;2.15;1.80;;;;;;;-144.78;100.00;59851.00;5019201;28;20210;-75
2021/01/25 01:22:34;;;;;;;2.60;2.03;;;;;;;-144.78;100.00;59851.00;5031779;28;20227;-73
2021/01/25 01:25:00;;;;;;;2.70;1.95;;;;;;;-144.78;100.00;59851.00;5032205;28;20285;-76
2021/01/25 01:27:26;;;;;;;4.75;2.85;;;;;;;-144.78;100.00;59851.00;5032004;28;20256;-75
2021/01/25 01:29:54;;;;;;;3.42;2.13;;;;;;;-144.78;100.00;59851.00;5026774;28;20324;-76
2021/01/25 01:32:20;;;;;;;2.63;1.98;;;;;;;-144.78;100.00;59851.00;5012303;28;20304;-75
2021/01/25 01:34:47;;;;;;;4.20;2.72;;;;;;;-144.78;100.00;59851.00;5013274;28;20298;-75
2021/01/25 01:37:14;;;;;;;1.85;1.50;;;;;;;-144.78;100.00;59851.00;4997554;28;20661;-75
2021/01/25 01:39:41;;;;;;;3.05;2.15;;;;;;;-144.78;100.00;59851.00;4993658;28;20195;-75
2021/01/25 01:42:13;;;;;;;3.20;2.70;;;;;;;-144.78;100.00;59851.00;5012827;28;20214;-75
2021/01/25 01:44:40;;;;;;;3.53;1.73;;;;;;;-144.78;100.00;59851.00;5012750;28;20577;-75
2021/01/25 01:47:08;;;;;;;2.38;2.10;;;;;;;-144.78;100.00;59851.00;5012029;28;20709;-76
2021/01/25 01:49:35;;;;;;;3.22;2.92;;;;;;;-144.78;100.00;59851.00;5012404;28;20258;-74
2021/01/25 01:52:01;;;;;;;2.47;2.28;;;;;;;-144.78;100.00;59851.00;5031567;28;20628;-76
2021/01/25 01:54:28;;;;;;;2.20;1.98;;;;;;;-144.78;100.00;59851.00;5031869;28;20732;-74
2021/01/25 01:56:54;;;;;;;2.70;2.50;;;;;;;-144.78;100.00;59851.00;5031433;28;20203;-75
2021/01/25 01:59:21;;;;;;;1.70;1.60;;;;;;;-144.78;100.00;59851.00;5031893;28;20682;-76
2021/01/25 02:01:47;;;;;;;2.92;2.10;;;;;;;-144.78;100.00;59851.00;5034619;28;20202;-74
2021/01/25 02:04:14;;;;;;;3.47;2.42;;;;;;;-144.78;100.00;59851.00;5026700;28;20290;-75
2021/01/25 02:06:42;;;;;;;4.90;2.42;;;;;;;-144.78;100.00;59851.00;5030155;28;20583;-75
2021/01/25 02:09:10;;;;;;;2.50;2.30;;;;;;;-144.78;100.00;59851.00;5035901;28;20254;-75
2021/01/25 02:11:37;;;;;;;2.03;1.85;;;;;;;-144.78;100.00;59851.00;5034345;28;20250;-74
2021/01/25 02:14:06;;;;;;;3.20;2.90;;;;;;;-144.78;100.00;59851.00;5035147;28;20210;-75
2021/01/25 02:16:33;;;;;;;2.13;1.73;;;;;;;-144.78;100.00;59851.00;5035234;28;20217;-75
2021/01/25 02:18:59;;;;;;;3.05;2.03;;;;;;;-144.78;100.00;59851.00;5035256;28;20611;-75
2021/01/25 02:21:30;;;;;;;3.13;2.40;;;;;;;-144.78;100.00;59851.00;5035437;28;20278;-74
2021/01/25 02:24:05;;;;;;;2.72;2.15;;;;;;;-144.78;100.00;59851.00;5035327;28;20707;-75
2021/01/25 02:26:44;;;;;;;2.95;1.92;;;;;;;-144.78;100.00;59851.00;5017527;28;20206;-76
2021/01/25 02:29:11;;;;;;;3.20;2.10;;;;;;;-144.78;100.00;59851.00;5026200;28;20295;-76
2021/01/25 02:31:38;;;;;;;2.35;1.98;;;;;;;-144.78;100.00;59851.00;5034906;28;20685;-76
2021/01/25 02:34:05;;;;;;;4.10;2.35;;;;;;;-144.78;100.00;59851.00;5001240;28;20283;-76
2021/01/25 02:36:33;;;;;;;2.63;2.42;;;;;;;-144.78;100.00;59851.00;5007101;28;20254;-76
2021/01/25 02:39:01;;;;;;;3.88;2.15;;;;;;;-144.78;100.00;59851.00;5029338;28;20204;-75
2021/01/25 02:41:29;;;;;;;3.33;2.70;;;;;;;-144.78;100.00;59851.00;5014982;28;20600;-76
2021/01/25 02:43:58;;;;;;;3.08;2.50;;;;;;;-144.78;100.00;59851.00;5014560;28;20188;-75
2021/01/25 02:46:28;;;;;;;3.17;2.20;;;;;;;-144.78;100.00;59851.00;5015055;28;20222;-76
2021/01/25 02:48:55;;;;;;;3.83;2.47;;;;;;;-144.78;100.00;59851.00;5014778;28;20210;-74
2021/01/25 02:51:22;;;;;;;4.75;3.05;;;;;;;-144.78;100.00;59851.00;5014812;28;20674;-73
2021/01/25 02:53:49;;;;;;;2.25;2.05;;;;;;;-144.78;100.00;59851.00;5014758;28;20338;-75
2021/01/25 02:56:15;;;;;;;2.40;2.17;;;;;;;-144.78;100.00;59851.00;5025227;28;20682;-75
2021/01/25 02:58:43;;;;;;;1.75;1.65;;;;;;;-144.78;100.00;59851.00;4996660;28;20638;-74
2021/01/25 03:01:09;;;;;;;3.17;2.45;;;;;;;-144.78;100.00;59851.00;4997986;28;20192;-74
2021/01/25 03:03:37;;;;;;;3.78;2.10;;;;;;;-144.78;100.00;59851.00;4995287;28;20298;-76
2021/01/25 03:06:04;;;;;;;2.55;2.28;;;;;;;-144.78;100.00;59851.00;5004683;28;20201;-75
2021/01/25 03:08:30;;;;;;;4.53;2.50;;;;;;;-144.78;100.00;59851.00;5015963;28;20210;-75
2021/01/25 03:10:56;;;;;;;2.45;2.20;;;;;;;-144.78;100.00;59851.00;5034092;28;20214;-75
2021/01/25 03:13:26;;;;;;;3.15;2.33;;;;;;;-144.78;100.00;59851.00;5033912;28;20243;-74
2021/01/25 03:15:56;;;;;;;3.05;1.98;;;;;;;-144.78;100.00;59851.00;5034247;28;20202;-76
2021/01/25 03:18:22;;;;;;;3.53;2.13;;;;;;;-144.78;100.00;59851.00;5034521;28;20216;-75
2021/01/25 03:20:51;;;;;;;3.90;3.10;;;;;;;-144.78;100.00;59851.00;5033674;28;20199;-75
2021/01/25 03:23:17;;;;;;;3.65;2.72;;;;;;;-144.78;100.00;59851.00;5033728;28;20186;-75
2021/01/25 03:25:45;;;;;;;4.50;2.55;;;;;;;-144.78;100.00;59851.00;5027548;28;20209;-75
2021/01/25 03:28:11;;;;;;;5.45;3.00;;;;;;;-144.78;100.00;59851.00;5015970;28;20744;-75
2021/01/25 03:30:38;;;;;;;3.05;2.28;;;;;;;-144.78;100.00;59851.00;5033417;28;20204;-74
2021/01/25 03:33:05;;;;;;;2.95;2.47;;;;;;;-144.78;100.00;59851.00;5034022;28;20248;-75
2021/01/25 03:35:46;;;;;;;3.20;2.53;;;;;;;-144.78;100.00;59851.00;5032695;28;20207;-75
2021/01/25 03:38:13;;;;;;;3.85;2.50;;;;;;;-144.78;100.00;59851.00;4968660;28;20205;-75
2021/01/25 03:40:40;;;;;;;6.63;3.35;;;;;;;-144.78;100.00;59851.00;4953269;29;20680;-74
2021/01/25 03:43:06;;;;;;;3.95;2.90;;;;;;;-144.78;100.00;59851.00;4952978;29;20213;-74
2021/01/25 03:45:32;;;;;;;6.05;2.47;;;;;;;-144.78;100.00;59851.00;4953242;29;20200;-74
2021/01/25 03:47:58;;;;;;;3.50;2.85;;;;;;;-144.78;100.00;59851.00;4953414;29;20209;-75
2021/01/25 03:50:25;;;;;;;2.83;2.30;;;;;;;-144.78;100.00;59851.00;4952826;29;20691;-75
2021/01/25 03:52:51;;;;;;;2.70;2.47;;;;;;;-144.78;100.00;59851.00;4953635;29;20213;-74
2021/01/25 03:55:18;;;;;;;3.08;2.63;;;;;;;-144.78;100.00;59851.00;4953225;29;20276;-75
2021/01/25 03:57:45;;;;;;;3.20;2.38;;;;;;;-144.78;100.00;59851.00;4953055;29;20247;-74
2021/01/25 04:00:12;;;;;;;2.97;2.67;;;;;;;-144.78;100.00;59851.00;4952869;29;20208;-75
2021/01/25 04:02:38;;;;;;;6.35;2.83;;;;;;;-144.78;100.00;59851.00;4952992;28;20280;-75
2021/01/25 04:05:06;;;;;;;5.75;3.80;;;;;;;-144.78;100.00;59851.00;4953535;28;20256;-75
2021/01/25 04:07:32;;;;;;;4.80;2.92;;;;;;;-144.78;100.00;59851.00;4952709;29;20211;-75
2021/01/25 04:09:58;;;;;;;5.00;3.20;;;;;;;-144.78;100.00;59851.00;4952662;29;20318;-75
2021/01/25 04:12:25;;;;;;;3.63;2.75;;;;;;;-144.78;100.00;59851.00;4952878;29;20266;-75
2021/01/25 04:14:52;;;;;;;4.90;2.88;;;;;;;-144.78;100.00;59851.00;4978565;28;20209;-74
2021/01/25 04:17:18;;;;;;;4.70;2.60;;;;;;;-144.78;100.00;59851.00;5033191;28;20550;-76
2021/01/25 04:19:44;;;;;;;6.18;2.10;;;;;;;-144.78;100.00;59851.00;5033129;28;20663;-75
2021/01/25 04:22:10;;;;;;;4.97;3.00;;;;;;;-144.78;100.00;59851.00;5032783;28;20225;-75
2021/01/25 04:24:36;;;;;;;4.63;2.25;;;;;;;-144.78;100.00;59851.00;5032806;28;20556;-75
2021/01/25 04:27:03;;;;;;;4.85;3.58;;;;;;;-144.78;100.00;59851.00;5033081;28;20223;-75
2021/01/25 04:29:31;;;;;;;4.78;3.55;;;;;;;-144.78;100.00;59851.00;5032754;28;20320;-75
2021/01/25 04:31:57;;;;;;;3.88;2.80;;;;;;;-144.78;100.00;59851.00;5025947;28;20245;-75
2021/01/25 04:34:23;;;;;;;4.22;2.70;;;;;;;-144.78;100.00;59851.00;5013045;28;20210;-74
2021/01/25 04:36:49;;;;;;;4.38;3.63;;;;;;;-144.78;100.00;59851.00;5013016;28;20623;-74
2021/01/25 04:39:15;;;;;;;3.78;3.25;;;;;;;-144.78;100.00;59851.00;5023536;28;20251;-74
2021/01/25 04:41:41;;;;;;;4.60;4.20;;;;;;;-144.78;100.00;59851.00;5032459;28;20294;-75
2021/01/25 04:44:08;;;;;;;6.15;3.90;;;;;;;-144.78;100.00;59851.00;5032482;28;20197;-74
2021/01/25 04:46:36;;;;;;;4.00;2.88;;;;;;;-144.78;100.00;59851.00;5012584;28;20203;-75
2021/01/25 04:49:03;;;;;;;4.75;3.53;;;;;;;-144.78;100.00;59851.00;5013243;28;20577;-74
2021/01/25 04:51:30;;;;;;;4.85;3.20;;;;;;;-144.78;100.00;59851.00;5031017;28;20232;-74
2021/01/25 04:53:58;;;;;;;3.45;2.67;;;;;;;-144.78;100.00;59851.00;5022376;28;20191;-74
2021/01/25 04:56:25;;;;;;;3.45;2.85;;;;;;;-144.78;100.00;59851.00;5012344;28;20249;-75
2021/01/25 04:58:52;;;;;;;5.53;3.03;;;;;;;-144.78;100.00;59851.00;5008864;28;20282;-74
2021/01/25 05:01:18;;;;;;;3.22;2.75;;;;;;;-144.78;100.00;59851.00;4993169;28;20192;-75
2021/01/25 05:03:45;;;;;;;5.53;3.13;;;;;;;-144.78;100.00;59851.00;5001511;28;20550;-75
2021/01/25 05:06:11;;;;;;;5.70;3.10;;;;;;;-144.78;100.00;59851.00;5012416;28;20274;-75
2021/01/25 05:08:37;;;;;;;4.60;2.83;;;;;;;-144.78;100.00;59851.00;5019502;28;20273;-75
2021/01/25 05:11:13;;;;;;;4.63;3.25;;;;;;;-144.78;100.00;59851.00;5032333;28;20210;-74
2021/01/25 05:13:40;;;;;;;2.60;2.40;;;;;;;-144.78;100.00;59851.00;5024642;28;20629;-75
2021/01/25 05:16:16;;;;;;;5.43;3.53;;;;;;;-144.78;100.00;59851.00;5013901;28;20203;-75
2021/01/25 05:18:42;;;;;;;4.90;2.80;;;;;;;-144.78;100.00;59851.00;5012196;28;20193;-75
2021/01/25 05:21:09;;;;;;;4.82;3.25;;;;;;;-144.78;100.00;59851.00;5011901;28;20229;-75
2021/01/25 05:23:37;;;;;;;3.25;2.95;;;;;;;-144.78;100.00;59851.00;5012205;28;20653;-75
2021/01/25 05:26:07;;;;;;;3.80;2.67;;;;;;;-144.78;100.00;59851.00;5012589;28;20198;-73
2021/01/25 05:28:40;;;;;;;4.45;2.50;;;;;;;-144.78;100.00;59851.00;5017988;28;20267;-74
2021/01/25 05:31:20;;;;;;;4.93;3.85;;;;;;;-144.78;100.00;59851.00;5031776;28;20312;-75
2021/01/25 05:33:47;;;;;;;5.18;3.65;;;;;;;-144.78;100.00;59851.00;5032273;28;20219;-75
2021/01/25 05:36:17;;;;;;;5.13;3.80;;;;;;;-144.78;100.00;59851.00;5035283;28;20318;-75
2021/01/25 05:38:47;;;;;;;4.60;3.42;;;;;;;-144.78;100.00;59851.00;5035224;28;20230;-74
2021/01/25 05:41:14;;;;;;;6.72;3.35;;;;;;;-144.78;100.00;59851.00;5036390;28;20267;-74
2021/01/25 05:43:41;;;;;;;4.63;3.20;;;;;;;-144.78;100.00;59851.00;5036064;28;20237;-75
2021/01/25 05:46:08;;;;;;;4.00;3.15;;;;;;;-144.78;100.00;59851.00;5035310;28;20249;-75
2021/01/25 05:48:34;;;;;;;6.07;3.42;;;;;;;-144.78;100.00;59851.00;5035913;28;20206;-75
2021/01/25 05:51:11;;;;;;;8.82;2.97;;;;;;;-144.78;100.00;59851.00;5035427;28;20202;-76
2021/01/25 05:53:39;;;;;;;5.63;3.88;;;;;;;-144.78;100.00;59851.00;5034865;28;20221;-75
2021/01/25 05:56:07;;;;;;;4.03;2.80;;;;;;;-144.78;100.00;59851.00;5026928;28;20290;-74
2021/01/25 05:58:33;;;;;;;3.45;3.15;;;;;;;-144.78;100.00;59851.00;5015592;28;20215;-73
2021/01/25 06:01:01;;;;;;;4.03;3.35;;;;;;;-144.78;100.00;59851.00;5024968;28;20200;-74
2021/01/25 06:03:27;;;;;;;2.78;1.67;;;;;;;-144.78;100.00;59851.00;5027626;28;20626;-73
2021/01/25 06:05:54;;;;;;;5.55;3.10;;;;;;;-144.78;100.00;59851.00;5024731;28;20195;-75
2021/01/25 06:08:25;;;;;;;2.80;2.28;;;;;;;-144.78;100.00;59851.00;5035233;28;20190;-75
2021/01/25 06:11:04;;;;;;;4.30;2.95;;;;;;;-144.78;100.00;59851.00;5035471;28;20289;-74
2021/01/25 06:13:35;;;;;;;7.15;3.67;;;;;;;-144.78;100.00;59851.00;5034973;28;20256;-72
2021/01/25 06:16:06;;;;;;;4.63;2.85;;;;;;;-144.78;100.00;59851.00;5035403;28;20225;-74
2021/01/25 06:18:33;;;;;;;3.47;2.20;;;;;;;-144.78;100.00;59851.00;5035601;28;20202;-75
2021/01/25 06:21:02;;;;;;;4.43;1.85;;;;;;;-144.78;100.00;59851.00;5035062;28;20241;-75
2021/01/25 06:23:30;;;;;;;3.78;2.70;;;;;;;-144.78;100.00;59851.00;5035352;28;20213;-75
2021/01/25 06:25:57;;;;;;;4.13;2.75;;;;;;;-144.78;100.00;59851.00;5035453;28;20195;-74
2021/01/25 06:28:23;;;;;;;4.28;2.75;;;;;;;-144.78;100.00;59851.00;5035104;28;20337;-76
2021/01/25 06:30:50;;;;;;;4.43;2.45;;;;;;;-144.78;100.00;59851.00;5023621;28;20203;-74
2021/01/25 06:33:19;;;;;;;5.20;3.78;;;;;;;-144.78;100.00;59851.00;5015268;28;20234;-75
2021/01/25 06:35:47;;;;;;;4.95;2.47;;;;;;;-144.78;100.00;59851.00;5014970;28;20261;-75
2021/01/25 06:38:15;;;;;;;3.38;2.97;;;;;;;-144.78;100.00;59851.00;5019833;28;20221;-74
2021/01/25 06:40:42;;;;;;;2.60;2.38;;;;;;;-144.78;100.00;59851.00;5034113;28;20205;-75
2021/01/25 06:43:11;;;;;;;2.15;1.70;;;;;;;-144.78;100.00;59851.00;5034672;28;20246;-74
2021/01/25 06:45:38;;;;;;;5.80;1.90;;;;;;;-144.78;100.00;59851.00;5029554;28;20642;-73
2021/01/25 06:48:06;;;;;;;4.95;2.58;;;;;;;-144.78;100.00;59851.00;5015343;28;20274;-76
2021/01/25 06:50:33;;;;;;;3.95;2.28;;;;;;;-144.78;100.00;59851.00;5030485;28;20215;-75
2021/01/25 06:53:00;;;;;;;5.47;2.45;;;;;;;-144.78;100.00;59851.00;5032102;28;20677;-73
2021/01/25 06:55:31;;;;;;;3.38;2.70;;;;;;;-144.78;100.00;59851.00;5014344;28;20206;-75
2021/01/25 06:57:57;;;;;;;4.22;2.38;;;;;;;-144.78;100.00;59851.00;5014916;28;20207;-74
2021/01/25 07:00:25;;;;;;;4.22;2.70;;;;;;;-144.78;100.00;59851.00;5014984;28;20218;-75
2021/01/25 07:02:54;;;;;;;2.70;1.98;;;;;;;-144.78;100.00;59851.00;5014915;28;20707;-75
2021/01/25 07:05:27;;;;;;;3.58;2.45;;;;;;;-144.78;100.00;59851.00;5014076;28;20207;-74
2021/01/25 07:08:21;;;;;;;2.85;1.98;;;;;;;-144.78;100.00;59851.00;5015514;28;20198;-74
2021/01/25 07:10:55;;;;;;;4.63;2.60;;;;;;;-144.78;100.00;59851.00;4995345;28;20219;-75
2021/01/25 07:13:23;;;;;;;3.00;2.15;;;;;;;-144.78;100.00;59851.00;4997135;28;20235;-75
2021/01/25 07:15:52;;;;;;;2.55;2.10;;;;;;;-144.78;100.00;59851.00;5014218;28;20214;-74
2021/01/25 07:18:19;;;;;;;3.40;2.03;;;;;;;-144.78;100.00;59851.00;5014287;28;20304;-76
2021/01/25 07:20:50;;;;;;;1.70;1.60;;;;;;;-144.78;100.00;59851.00;5003922;28;20254;-74
2021/01/25 07:23:21;;;;;;;5.15;3.05;;;;;;;-144.78;100.00;59851.00;5005825;28;20191;-73
2021/01/25 07:25:53;;;;;;;6.25;1.90;;;;;;;-144.78;100.00;59851.00;5013177;28;20232;-74
2021/01/25 07:28:20;;;;;;;2.78;1.70;;;;;;;-144.78;100.00;59851.00;5000018;28;20277;-74
2021/01/25 07:30:46;;;;;;;4.57;2.25;;;;;;;-144.78;100.00;59851.00;5033966;28;20217;-73
2021/01/25 07:33:14;;;;;;;1.67;1.23;;;;;;;-144.78;100.00;59851.00;5033226;28;20228;-73
2021/01/25 07:35:40;;;;;;;2.28;1.92;;;;;;;-144.78;100.00;59851.00;5033706;28;20305;-74
2021/01/25 07:38:07;;;;;;;2.75;2.38;;;;;;;-144.78;100.00;59851.00;5033548;28;20202;-73
2021/01/25 07:40:33;;;;;;;6.85;1.88;;;;;;;-144.78;100.00;59851.00;5032788;28;20201;-74
2021/01/25 07:43:03;;;;;;;2.97;2.35;;;;;;;-144.78;100.00;59851.00;5029333;28;20291;-75
2021/01/25 07:45:30;;;;;;;3.38;1.73;;;;;;;-144.78;100.00;59851.00;5026826;28;20217;-73
2021/01/25 07:47:57;;;;;;;3.17;2.28;;;;;;;-144.78;100.00;59851.00;5032137;28;20202;-74
2021/01/25 07:50:24;;;;;;;7.20;2.45;;;;;;;-144.78;100.00;59851.00;5032353;28;20314;-74
2021/01/25 07:52:57;;;;;;;2.95;1.75;;;;;;;-144.78;100.00;59851.00;5033397;28;20308;-73
2021/01/25 07:55:24;;;;;;;3.42;2.20;;;;;;;-144.78;100.00;59851.00;5020403;28;20245;-72
2021/01/25 07:57:50;;;;;;;1.90;1.80;;;;;;;-144.78;100.00;59851.00;5026326;28;20612;-74
2021/01/25 08:00:21;;;;;;;1.80;1.70;;;;;;;-144.78;100.00;59851.00;5027887;28;20568;-73
2021/01/25 08:02:54;;;;;;;2.50;2.30;;;;;;;-144.78;100.00;59851.00;5031963;28;20206;-72
2021/01/25 08:05:22;;;;;;;5.60;2.25;;;;;;;-144.78;100.00;59851.00;5033752;28;20198;-76
2021/01/25 08:07:50;;;;;;;1.85;1.45;;;;;;;-144.78;100.00;59851.00;5027263;28;20202;-73
2021/01/25 08:10:17;;;;;;;2.65;1.95;;;;;;;-144.78;100.00;59851.00;5029659;28;20329;-75
2021/01/25 08:12:46;;;;;;;3.80;1.95;;;;;;;-144.78;100.00;59851.00;5033024;28;20232;-72
2021/01/25 08:15:18;;;;;;;3.00;2.65;;;;;;;-144.78;100.00;59851.00;5033200;28;20711;-71
2021/01/25 08:17:51;;;;;;;3.78;1.70;;;;;;;-144.78;100.00;59851.00;5033623;28;20198;-73
2021/01/25 08:20:20;;;;;;;2.67;2.25;;;;;;;-144.78;100.00;59851.00;5033490;28;20237;-73
2021/01/25 08:22:52;;;;;;;3.03;1.60;;;;;;;-144.78;100.00;59851.00;5033242;28;20529;-73
2021/01/25 08:25:21;;;;;;;4.40;2.40;;;;;;;-144.78;100.00;59851.00;5021902;28;20202;-73
2021/01/25 08:27:58;;;;;;;1.60;1.50;;;;;;;-144.78;100.00;59851.00;5031461;28;20299;-74
2021/01/25 08:30:32;;;;;;;2.17;1.85;;;;;;;-144.78;100.00;59851.00;5026534;28;20229;-74
2021/01/25 08:33:01;;;;;;;2.00;1.80;;;;;;;-144.78;100.00;59851.00;5013367;28;20978;-74
2021/01/25 08:35:32;;;;;;;2.13;1.83;;;;;;;-144.78;100.00;59851.00;5013771;28;20672;-76
2021/01/25 08:38:17;;;;;;;2.05;1.85;;;;;;;-144.78;100.00;59851.00;5015586;28;20229;-73
2021/01/25 08:40:44;;;;;;;2.08;1.77;;;;;;;-144.78;100.00;59851.00;5015092;28;20194;-71
2021/01/25 08:43:23;;;;;;;4.35;1.95;;;;;;;-144.78;100.00;59851.00;5006717;28;20206;-74
2021/01/25 08:45:51;;;;;;;2.95;1.98;;;;;;;-144.78;100.00;59851.00;5012836;28;20288;-74
2021/01/25 08:48:26;;;;;;;3.75;2.67;;;;;;;-144.78;100.00;59851.00;5009261;28;20633;-75
2021/01/25 08:50:53;;;;;;;3.17;2.00;;;;;;;-144.78;100.00;59851.00;5012492;28;20202;-74
2021/01/25 08:53:29;;;;;;;7.10;3.05;;;;;;;-144.78;100.00;59851.00;4999905;28;20258;-76
2021/01/25 08:55:57;;;;;;;3.85;2.58;;;;;;;-144.78;100.00;59851.00;5015903;28;20201;-73
2021/01/25 08:58:26;;;;;;;2.90;2.13;;;;;;;-144.78;100.00;59851.00;5012932;28;20200;-73
2021/01/25 09:00:54;;;;;;;2.67;2.17;;;;;;;-144.78;100.00;59851.00;4996067;28;20253;-73
2021/01/25 09:03:21;;;;;;;4.05;2.35;;;;;;;-144.78;100.00;59851.00;5027222;28;20280;-75
2021/01/25 09:05:50;;;;;;;6.93;3.08;;;;;;;-144.78;100.00;59851.00;5032508;28;20629;-75
2021/01/25 09:08:17;;;;;;;3.47;2.70;;;;;;;-144.78;100.00;59851.00;5031670;28;20205;-75
2021/01/25 09:10:43;;;;;;;6.68;2.05;;;;;;;-144.78;100.00;59851.00;5014209;28;20246;-75
2021/01/25 09:13:09;;;;;;;4.07;3.47;;;;;;;-144.78;100.00;59851.00;5000282;28;20226;-75
2021/01/25 09:15:36;;;;;;;8.10;2.83;;;;;;;-144.78;100.00;59851.00;5009250;28;20265;-74
2021/01/25 09:18:04;;;;;;;2.60;2.10;;;;;;;-144.78;100.00;59851.00;5012832;28;20219;-75
2021/01/25 09:20:31;;;;;;;6.55;2.95;;;;;;;-144.78;100.00;59851.00;5012633;28;20649;-74
2021/01/25 09:22:58;;;;;;;4.65;2.33;;;;;;;-144.78;100.00;59851.00;5008366;28;20191;-74
2021/01/25 09:25:25;;;;;;;2.55;2.35;;;;;;;-144.78;100.00;59851.00;5022151;28;20210;-75
2021/01/25 09:27:51;;;;;;;3.00;2.65;;;;;;;-144.78;100.00;59851.00;5032141;28;20210;-74
2021/01/25 09:30:18;;;;;;;3.60;2.28;;;;;;;-144.78;100.00;59851.00;5023853;28;20241;-74
2021/01/25 09:32:45;;;;;;;3.95;3.03;;;;;;;-144.78;100.00;59851.00;5001152;28;20602;-73
2021/01/25 09:35:17;;;;;;;2.60;2.40;;;;;;;-144.78;100.00;59851.00;5031420;28;20293;-74
2021/01/25 09:37:43;;;;;;;2.33;1.63;;;;;;;-144.78;100.00;59851.00;5032129;28;20309;-73
2021/01/25 09:40:11;;;;;;;2.85;2.55;;;;;;;-144.78;100.00;59851.00;5017365;28;20226;-72
2021/01/25 09:42:37;;;;;;;2.70;2.10;;;;;;;-144.78;100.00;59851.00;5012032;28;20754;-73
2021/01/25 09:45:05;;;;;;;3.58;2.15;;;;;;;-144.78;100.00;59851.00;5025520;28;20289;-74
2021/01/25 09:47:31;;;;;;;4.22;2.65;;;;;;;-144.78;100.00;59851.00;5031061;28;20260;-75
2021/01/25 09:49:58;;;;;;;5.70;2.95;;;;;;;-144.78;100.00;59851.00;5012031;28;20236;-72
2021/01/25 09:52:25;;;;;;;3.80;2.53;;;;;;;-144.78;100.00;59851.00;5017811;28;20224;-72
2021/01/25 09:54:52;;;;;;;2.95;2.40;;;;;;;-144.78;100.00;59851.00;5010442;28;20251;-72
2021/01/25 09:57:18;;;;;;;5.53;3.10;;;;;;;-144.78;100.00;59851.00;5012678;28;20214;-72
2021/01/25 09:59:45;;;;;;;3.08;2.63;;;;;;;-144.78;100.00;59851.00;5011691;28;20200;-73
2021/01/25 10:02:11;;;;;;;1.70;1.60;;;;;;;-144.78;100.00;59851.00;4994675;28;20214;-72
2021/01/25 10:04:37;;;;;;;5.78;3.78;;;;;;;-144.78;100.00;59851.00;5009168;28;20206;-73
2021/01/25 10:07:04;;;;;;;2.03;1.83;;;;;;;-144.78;100.00;59851.00;5010193;28;20215;-73
2021/01/25 10:09:31;;;;;;;2.15;1.95;;;;;;;-144.78;100.00;59851.00;5016754;28;20593;-74
2021/01/25 10:11:57;;;;;;;3.42;2.03;;;;;;;-144.78;100.00;59851.00;5001713;28;20201;-73
2021/01/25 10:14:24;;;;;;;6.88;2.80;;;;;;;-144.78;100.00;59851.00;5002670;28;20205;-72
2021/01/25 10:16:50;;;;;;;3.95;2.60;;;;;;;-144.78;100.00;59851.00;5008704;28;20289;-73
2021/01/25 10:19:17;;;;;;;4.80;2.92;;;;;;;-144.78;100.00;59851.00;5001305;28;20192;-73
2021/01/25 10:21:43;;;;;;;2.25;2.05;;;;;;;-144.78;100.00;59851.00;4994885;28;20207;-74
2021/01/25 10:24:10;;;;;;;6.20;4.10;;;;;;;-144.78;100.00;59851.00;4998057;28;20212;-76
2021/01/25 10:26:37;;;;;;;3.85;2.78;;;;;;;-144.78;100.00;59851.00;5010286;28;20213;-74
2021/01/25 10:29:04;;;;;;;4.68;2.70;;;;;;;-144.78;100.00;59851.00;5023976;28;20230;-74
2021/01/25 10:31:30;;;;;;;4.13;2.45;;;;;;;-144.78;100.00;59851.00;5020809;28;20232;-74
2021/01/25 10:33:57;;;;;;;4.03;3.55;;;;;;;-144.78;100.00;59851.00;5030189;28;20261;-75
2021/01/25 10:36:23;;;;;;;3.38;2.95;;;;;;;-144.78;100.00;59851.00;5035619;28;20225;-74
2021/01/25 10:38:49;;;;;;;2.55;2.03;;;;;;;-144.78;100.00;59851.00;5028387;28;20200;-75
2021/01/25 10:41:16;;;;;;;4.13;3.67;;;;;;;-144.78;100.00;59851.00;5015875;28;20215;-76
2021/01/25 10:43:44;;;;;;;6.05;2.65;;;;;;;-144.78;100.00;59851.00;5011634;28;20237;-75
2021/01/25 10:46:12;;;;;;;4.97;2.97;;;;;;;-144.78;100.00;59851.00;5016592;28;20200;-75
2021/01/25 10:48:38;;;;;;;5.00;3.90;;;;;;;-144.78;100.00;59851.00;5016113;28;20702;-74
2021/01/25 10:51:05;;;;;;;3.60;2.70;;;;;;;-144.78;100.00;59851.00;5015842;28;20648;-75
2021/01/25 10:53:31;;;;;;;9.63;3.70;;;;;;;-144.78;100.00;59851.00;5015386;28;20283;-74
2021/01/25 10:55:57;;;;;;;5.13;3.28;;;;;;;-144.78;100.00;59851.00;5035069;28;20242;-75
2021/01/25 10:58:24;;;;;;;4.03;2.85;;;;;;;-144.78;100.00;59851.00;5035309;28;20711;-76
2021/01/25 11:00:52;;;;;;;3.47;2.88;;;;;;;-144.78;100.00;59851.00;5004463;28;20225;-76
2021/01/25 11:03:19;;;;;;;3.78;3.47;;;;;;;-144.78;100.00;59851.00;4995829;28;20190;-76
2021/01/25 11:05:45;;;;;;;4.68;3.20;;;;;;;-144.78;100.00;59851.00;5017551;28;20233;-75
2021/01/25 11:08:12;;;;;;;3.97;2.63;;;;;;;-144.78;100.00;59851.00;5004750;28;20198;-75
2021/01/25 11:10:39;;;;;;;2.75;2.15;;;;;;;-144.78;100.00;59851.00;5035840;28;20213;-75
2021/01/25 11:13:05;;;;;;;3.58;3.25;;;;;;;-144.78;100.00;59851.00;5035285;28;20306;-75